sensor_id;sensor_type;location;lat;lon;timestamp;pressure;altitude;pressure_sealevel;temperature;humidity
6090;BME280;3073;42.660;23.316;2023-06-22T00:02:04;94961.53;;;28.67;49.59
6090;BME280;3073;42.660;23.316;2023-06-22T00:04:31;94955.50;;;28.66;50.09
6090;BME280;3073;42.660;23.316;2023-06-22T00:06:58;94947.47;;;28.75;50.50
6090;BME280;3073;42.660;23.316;2023-06-22T00:09:26;94955.94;;;28.68;50.26
6090;BME280;3073;42.660;23.316;2023-06-22T00:11:53;94951.41;;;28.53;49.93
6090;BME280;3073;42.660;23.316;2023-06-22T00:14:20;94944.16;;;28.62;50.17
6090;BME280;3073;42.660;23.316;2023-06-22T00:16:46;94948.69;;;28.49;50.51
6090;BME280;3073;42.660;23.316;2023-06-22T00:19:14;94945.28;;;28.18;51.71
6090;BME280;3073;42.660;23.316;2023-06-22T00:21:41;94942.06;;;28.40;51.39
6090;BME280;3073;42.660;23.316;2023-06-22T00:24:08;94943.84;;;28.36;51.58
6090;BME280;3073;42.660;23.316;2023-06-22T00:26:36;94928.19;;;28.24;52.20
6090;BME280;3073;42.660;23.316;2023-06-22T00:29:03;94929.13;;;28.47;52.00
6090;BME280;3073;42.660;23.316;2023-06-22T00:31:30;94917.75;;;28.27;52.33
6090;BME280;3073;42.660;23.316;2023-06-22T00:33:56;94923.53;;;28.33;52.94
6090;BME280;3073;42.660;23.316;2023-06-22T00:36:23;94929.03;;;28.43;52.69
6090;BME280;3073;42.660;23.316;2023-06-22T00:38:50;94930.22;;;28.46;52.31
6090;BME280;3073;42.660;23.316;2023-06-22T00:41:17;94923.78;;;28.43;52.59
6090;BME280;3073;42.660;23.316;2023-06-22T00:43:46;94914.63;;;28.53;52.57
6090;BME280;3073;42.660;23.316;2023-06-22T00:46:13;94919.56;;;28.39;52.84
6090;BME280;3073;42.660;23.316;2023-06-22T00:48:41;94920.72;;;28.26;53.06
6090;BME280;3073;42.660;23.316;2023-06-22T00:51:10;94916.09;;;28.35;53.08
6090;BME280;3073;42.660;23.316;2023-06-22T00:53:38;94920.75;;;28.57;53.07
6090;BME280;3073;42.660;23.316;2023-06-22T00:56:07;94924.72;;;28.51;52.95
6090;BME280;3073;42.660;23.316;2023-06-22T00:58:36;94922.44;;;28.34;52.87
6090;BME280;3073;42.660;23.316;2023-06-22T01:01:05;94922.13;;;28.07;53.10
6090;BME280;3073;42.660;23.316;2023-06-22T01:03:33;94931.38;;;28.17;52.96
6090;BME280;3073;42.660;23.316;2023-06-22T01:06:05;94943.72;;;27.89;54.34
6090;BME280;3073;42.660;23.316;2023-06-22T01:08:42;94932.56;;;27.92;53.92
6090;BME280;3073;42.660;23.316;2023-06-22T01:11:20;94927.72;;;27.78;54.67
6090;BME280;3073;42.660;23.316;2023-06-22T01:13:54;94925.22;;;27.70;54.87
6090;BME280;3073;42.660;23.316;2023-06-22T01:16:29;94930.84;;;26.59;57.59
6090;BME280;3073;42.660;23.316;2023-06-22T01:19:00;94933.97;;;26.85;56.78
6090;BME280;3073;42.660;23.316;2023-06-22T01:21:29;94935.63;;;26.12;57.73
6090;BME280;3073;42.660;23.316;2023-06-22T01:24:09;94942.75;;;26.11;57.46
6090;BME280;3073;42.660;23.316;2023-06-22T01:26:42;94937.94;;;25.60;58.54
6090;BME280;3073;42.660;23.316;2023-06-22T01:29:12;94934.13;;;26.44;56.74
6090;BME280;3073;42.660;23.316;2023-06-22T01:31:42;94939.16;;;26.73;55.69
6090;BME280;3073;42.660;23.316;2023-06-22T01:34:10;94952.50;;;26.92;55.32
6090;BME280;3073;42.660;23.316;2023-06-22T01:36:39;94949.88;;;26.92;55.77
6090;BME280;3073;42.660;23.316;2023-06-22T01:39:07;94938.31;;;27.05;55.37
6090;BME280;3073;42.660;23.316;2023-06-22T01:41:36;94940.03;;;27.26;55.05
6090;BME280;3073;42.660;23.316;2023-06-22T01:44:05;94950.97;;;27.03;55.54
6090;BME280;3073;42.660;23.316;2023-06-22T01:46:34;94954.03;;;27.18;55.60
6090;BME280;3073;42.660;23.316;2023-06-22T01:49:02;94954.25;;;27.25;55.37
6090;BME280;3073;42.660;23.316;2023-06-22T01:51:29;94945.97;;;26.86;56.18
6090;BME280;3073;42.660;23.316;2023-06-22T01:53:56;94950.00;;;26.06;58.41
6090;BME280;3073;42.660;23.316;2023-06-22T01:56:23;94950.50;;;26.65;57.57
6090;BME280;3073;42.660;23.316;2023-06-22T01:58:55;94953.56;;;26.55;57.67
6090;BME280;3073;42.660;23.316;2023-06-22T02:01:27;94950.75;;;26.96;56.19
6090;BME280;3073;42.660;23.316;2023-06-22T02:04:03;94955.78;;;27.01;56.39
6090;BME280;3073;42.660;23.316;2023-06-22T02:06:36;94962.53;;;27.02;56.39
6090;BME280;3073;42.660;23.316;2023-06-22T02:09:08;94966.16;;;27.10;55.88
6090;BME280;3073;42.660;23.316;2023-06-22T02:11:36;94970.41;;;26.90;56.11
6090;BME280;3073;42.660;23.316;2023-06-22T02:14:04;94972.22;;;26.21;57.58
6090;BME280;3073;42.660;23.316;2023-06-22T02:16:32;94964.41;;;26.33;57.60
6090;BME280;3073;42.660;23.316;2023-06-22T02:19:02;94954.16;;;26.28;57.95
6090;BME280;3073;42.660;23.316;2023-06-22T02:21:30;94955.06;;;26.11;58.34
6090;BME280;3073;42.660;23.316;2023-06-22T02:23:57;94954.72;;;26.45;57.89
6090;BME280;3073;42.660;23.316;2023-06-22T02:26:25;94948.03;;;26.36;58.23
6090;BME280;3073;42.660;23.316;2023-06-22T02:28:52;94957.13;;;26.50;58.08
6090;BME280;3073;42.660;23.316;2023-06-22T02:31:19;94949.06;;;26.55;57.79
6090;BME280;3073;42.660;23.316;2023-06-22T02:33:46;94941.97;;;26.56;58.26
6090;BME280;3073;42.660;23.316;2023-06-22T02:36:15;94941.75;;;26.49;59.06
6090;BME280;3073;42.660;23.316;2023-06-22T02:38:42;94950.41;;;26.61;58.99
6090;BME280;3073;42.660;23.316;2023-06-22T02:41:14;94957.78;;;26.15;60.49
6090;BME280;3073;42.660;23.316;2023-06-22T02:43:44;94958.78;;;25.19;63.59
6090;BME280;3073;42.660;23.316;2023-06-22T02:46:11;94957.31;;;25.59;62.11
6090;BME280;3073;42.660;23.316;2023-06-22T02:48:39;94953.69;;;26.26;60.58
6090;BME280;3073;42.660;23.316;2023-06-22T02:51:06;94954.31;;;26.68;58.68
6090;BME280;3073;42.660;23.316;2023-06-22T02:53:34;94959.81;;;26.87;57.76
6090;BME280;3073;42.660;23.316;2023-06-22T02:56:02;94953.81;;;26.86;58.07
6090;BME280;3073;42.660;23.316;2023-06-22T02:58:30;94952.72;;;26.87;58.22
6090;BME280;3073;42.660;23.316;2023-06-22T03:01:04;94957.06;;;27.20;58.13
6090;BME280;3073;42.660;23.316;2023-06-22T03:03:31;94959.81;;;27.23;57.77
6090;BME280;3073;42.660;23.316;2023-06-22T03:05:58;94956.53;;;27.26;57.52
6090;BME280;3073;42.660;23.316;2023-06-22T03:08:26;94951.41;;;27.18;57.23
6090;BME280;3073;42.660;23.316;2023-06-22T03:10:55;94955.97;;;27.33;56.87
6090;BME280;3073;42.660;23.316;2023-06-22T03:13:22;94961.25;;;27.45;56.43
6090;BME280;3073;42.660;23.316;2023-06-22T03:15:49;94973.03;;;27.51;56.26
6090;BME280;3073;42.660;23.316;2023-06-22T03:18:16;94973.53;;;27.56;56.09
6090;BME280;3073;42.660;23.316;2023-06-22T03:20:43;94983.06;;;27.49;56.72
6090;BME280;3073;42.660;23.316;2023-06-22T03:23:09;94983.59;;;27.42;57.32
6090;BME280;3073;42.660;23.316;2023-06-22T03:25:36;94986.97;;;27.67;56.89
6090;BME280;3073;42.660;23.316;2023-06-22T03:28:04;94983.16;;;27.52;57.62
6090;BME280;3073;42.660;23.316;2023-06-22T03:30:31;94988.06;;;27.66;57.01
6090;BME280;3073;42.660;23.316;2023-06-22T03:32:58;94989.78;;;27.74;56.95
6090;BME280;3073;42.660;23.316;2023-06-22T03:35:25;94993.19;;;27.62;56.70
6090;BME280;3073;42.660;23.316;2023-06-22T03:37:52;95001.34;;;27.45;57.03
6090;BME280;3073;42.660;23.316;2023-06-22T03:40:19;94999.56;;;27.49;57.04
6090;BME280;3073;42.660;23.316;2023-06-22T03:42:46;94994.53;;;27.56;57.01
6090;BME280;3073;42.660;23.316;2023-06-22T03:45:14;95004.59;;;27.54;56.55
6090;BME280;3073;42.660;23.316;2023-06-22T03:47:41;94999.88;;;27.60;56.62
6090;BME280;3073;42.660;23.316;2023-06-22T03:50:08;95006.97;;;27.59;56.63
6090;BME280;3073;42.660;23.316;2023-06-22T03:52:35;95008.69;;;26.83;58.71
6090;BME280;3073;42.660;23.316;2023-06-22T03:55:02;95015.28;;;27.01;59.25
6090;BME280;3073;42.660;23.316;2023-06-22T03:57:29;95014.28;;;27.05;59.27
6090;BME280;3073;42.660;23.316;2023-06-22T03:59:56;95005.34;;;27.19;59.47
6090;BME280;3073;42.660;23.316;2023-06-22T04:02:25;95012.31;;;27.02;60.17
6090;BME280;3073;42.660;23.316;2023-06-22T04:04:52;95010.69;;;27.22;59.64
6090;BME280;3073;42.660;23.316;2023-06-22T04:07:19;95023.47;;;27.36;59.54
6090;BME280;3073;42.660;23.316;2023-06-22T04:09:45;95019.88;;;27.40;59.64
6090;BME280;3073;42.660;23.316;2023-06-22T04:12:12;95014.84;;;27.59;59.55
6090;BME280;3073;42.660;23.316;2023-06-22T04:14:39;95001.97;;;27.94;57.95
6090;BME280;3073;42.660;23.316;2023-06-22T04:17:06;94993.84;;;27.99;58.03
6090;BME280;3073;42.660;23.316;2023-06-22T04:19:34;94996.72;;;28.06;57.75
6090;BME280;3073;42.660;23.316;2023-06-22T04:22:01;94993.19;;;28.02;57.54
6090;BME280;3073;42.660;23.316;2023-06-22T04:24:28;94991.66;;;28.13;56.96
6090;BME280;3073;42.660;23.316;2023-06-22T04:26:55;94981.75;;;28.50;55.98
6090;BME280;3073;42.660;23.316;2023-06-22T04:29:22;94979.97;;;27.99;57.13
6090;BME280;3073;42.660;23.316;2023-06-22T04:31:54;94974.03;;;28.42;56.69
6090;BME280;3073;42.660;23.316;2023-06-22T04:34:23;94977.94;;;28.63;55.92
6090;BME280;3073;42.660;23.316;2023-06-22T04:36:53;94984.28;;;28.47;56.56
6090;BME280;3073;42.660;23.316;2023-06-22T04:39:20;94988.41;;;28.91;55.64
6090;BME280;3073;42.660;23.316;2023-06-22T04:41:47;94988.31;;;29.03;54.68
6090;BME280;3073;42.660;23.316;2023-06-22T04:44:15;94992.03;;;29.69;53.52
6090;BME280;3073;42.660;23.316;2023-06-22T04:46:50;94995.13;;;29.55;52.61
6090;BME280;3073;42.660;23.316;2023-06-22T04:49:20;95000.09;;;29.60;53.17
6090;BME280;3073;42.660;23.316;2023-06-22T04:51:48;94989.19;;;29.58;52.69
6090;BME280;3073;42.660;23.316;2023-06-22T04:54:18;94997.88;;;29.11;53.56
6090;BME280;3073;42.660;23.316;2023-06-22T04:56:45;95001.88;;;28.90;54.81
6090;BME280;3073;42.660;23.316;2023-06-22T04:59:13;95005.91;;;29.50;53.83
6090;BME280;3073;42.660;23.316;2023-06-22T05:01:40;95009.75;;;28.74;55.29
6090;BME280;3073;42.660;23.316;2023-06-22T05:04:07;95011.00;;;28.37;56.60
6090;BME280;3073;42.660;23.316;2023-06-22T05:06:35;95011.13;;;28.84;55.71
6090;BME280;3073;42.660;23.316;2023-06-22T05:09:02;95006.03;;;28.75;55.50
6090;BME280;3073;42.660;23.316;2023-06-22T05:11:32;95008.75;;;29.60;53.94
6090;BME280;3073;42.660;23.316;2023-06-22T05:13:58;95013.56;;;29.74;54.05
6090;BME280;3073;42.660;23.316;2023-06-22T05:16:25;95012.16;;;30.15;52.25
6090;BME280;3073;42.660;23.316;2023-06-22T05:18:52;95004.25;;;29.42;52.52
6090;BME280;3073;42.660;23.316;2023-06-22T05:21:24;95007.38;;;29.67;52.32
6090;BME280;3073;42.660;23.316;2023-06-22T05:23:52;95007.66;;;29.27;53.86
6090;BME280;3073;42.660;23.316;2023-06-22T05:26:19;95010.31;;;29.46;54.31
6090;BME280;3073;42.660;23.316;2023-06-22T05:28:48;95017.22;;;30.24;52.84
6090;BME280;3073;42.660;23.316;2023-06-22T05:31:15;95010.41;;;30.61;52.10
6090;BME280;3073;42.660;23.316;2023-06-22T05:33:43;95022.88;;;30.64;51.14
6090;BME280;3073;42.660;23.316;2023-06-22T05:36:10;95028.41;;;30.78;51.02
6090;BME280;3073;42.660;23.316;2023-06-22T05:38:38;95026.16;;;30.57;50.88
6090;BME280;3073;42.660;23.316;2023-06-22T05:41:05;95025.16;;;29.54;53.83
6090;BME280;3073;42.660;23.316;2023-06-22T05:43:32;95033.97;;;30.54;51.85
6090;BME280;3073;42.660;23.316;2023-06-22T05:46:01;95038.94;;;31.24;50.58
6090;BME280;3073;42.660;23.316;2023-06-22T05:48:28;95042.34;;;30.59;51.08
6090;BME280;3073;42.660;23.316;2023-06-22T05:50:55;95043.72;;;31.41;50.52
6090;BME280;3073;42.660;23.316;2023-06-22T05:53:22;95040.16;;;31.30;50.08
6090;BME280;3073;42.660;23.316;2023-06-22T05:55:49;95044.34;;;31.31;50.49
6090;BME280;3073;42.660;23.316;2023-06-22T05:58:16;95041.38;;;31.58;50.02
6090;BME280;3073;42.660;23.316;2023-06-22T06:00:43;95042.09;;;31.33;49.24
6090;BME280;3073;42.660;23.316;2023-06-22T06:03:11;95039.13;;;31.87;48.39
6090;BME280;3073;42.660;23.316;2023-06-22T06:05:42;95036.16;;;31.62;48.07
6090;BME280;3073;42.660;23.316;2023-06-22T06:08:10;95029.66;;;32.12;47.96
6090;BME280;3073;42.660;23.316;2023-06-22T06:10:37;95034.66;;;31.91;47.95
6090;BME280;3073;42.660;23.316;2023-06-22T06:13:04;95030.66;;;31.74;49.08
6090;BME280;3073;42.660;23.316;2023-06-22T06:15:31;95023.94;;;30.02;52.52
6090;BME280;3073;42.660;23.316;2023-06-22T06:17:58;95026.28;;;30.87;50.57
6090;BME280;3073;42.660;23.316;2023-06-22T06:20:26;95017.44;;;31.48;49.04
6090;BME280;3073;42.660;23.316;2023-06-22T06:22:54;95024.41;;;32.16;46.97
6090;BME280;3073;42.660;23.316;2023-06-22T06:25:21;95020.41;;;33.57;44.70
6090;BME280;3073;42.660;23.316;2023-06-22T06:27:50;95023.06;;;33.57;43.97
6090;BME280;3073;42.660;23.316;2023-06-22T06:30:20;95018.50;;;34.30;44.14
6090;BME280;3073;42.660;23.316;2023-06-22T06:32:47;95024.59;;;36.00;41.97
6090;BME280;3073;42.660;23.316;2023-06-22T06:35:15;95031.34;;;36.33;39.65
6090;BME280;3073;42.660;23.316;2023-06-22T06:37:45;95027.69;;;35.91;39.96
6090;BME280;3073;42.660;23.316;2023-06-22T06:40:13;95025.47;;;35.47;40.42
6090;BME280;3073;42.660;23.316;2023-06-22T06:42:41;95025.78;;;35.95;40.58
6090;BME280;3073;42.660;23.316;2023-06-22T06:45:10;95010.59;;;34.44;42.73
6090;BME280;3073;42.660;23.316;2023-06-22T06:47:37;95009.59;;;35.23;42.34
6090;BME280;3073;42.660;23.316;2023-06-22T06:50:06;95018.69;;;35.25;42.30
6090;BME280;3073;42.660;23.316;2023-06-22T06:52:33;95011.75;;;34.36;43.50
6090;BME280;3073;42.660;23.316;2023-06-22T06:55:01;94997.97;;;32.49;47.24
6090;BME280;3073;42.660;23.316;2023-06-22T06:57:30;94996.13;;;33.41;45.47
6090;BME280;3073;42.660;23.316;2023-06-22T06:59:57;95002.66;;;34.51;44.34
6090;BME280;3073;42.660;23.316;2023-06-22T07:02:25;95003.53;;;35.15;43.45
6090;BME280;3073;42.660;23.316;2023-06-22T07:04:53;95006.41;;;35.98;41.76
6090;BME280;3073;42.660;23.316;2023-06-22T07:07:21;95005.59;;;36.19;41.94
6090;BME280;3073;42.660;23.316;2023-06-22T07:09:48;95000.97;;;36.27;41.45
6090;BME280;3073;42.660;23.316;2023-06-22T07:12:16;94998.84;;;37.99;38.64
6090;BME280;3073;42.660;23.316;2023-06-22T07:14:43;95001.16;;;37.97;38.50
6090;BME280;3073;42.660;23.316;2023-06-22T07:17:10;95005.44;;;38.52;38.04
6090;BME280;3073;42.660;23.316;2023-06-22T07:19:37;95015.34;;;39.05;36.88
6090;BME280;3073;42.660;23.316;2023-06-22T07:22:04;95013.19;;;38.70;36.01
6090;BME280;3073;42.660;23.316;2023-06-22T07:24:31;95011.88;;;39.74;35.24
6090;BME280;3073;42.660;23.316;2023-06-22T07:26:58;95007.25;;;37.98;36.79
6090;BME280;3073;42.660;23.316;2023-06-22T07:29:27;95008.09;;;39.91;36.11
6090;BME280;3073;42.660;23.316;2023-06-22T07:31:53;95010.63;;;40.38;34.72
6090;BME280;3073;42.660;23.316;2023-06-22T07:34:21;94998.56;;;39.28;36.11
6090;BME280;3073;42.660;23.316;2023-06-22T07:36:48;95006.47;;;39.35;35.60
6090;BME280;3073;42.660;23.316;2023-06-22T07:39:15;95013.53;;;39.45;35.98
6090;BME280;3073;42.660;23.316;2023-06-22T07:41:42;95020.75;;;39.68;36.01
6090;BME280;3073;42.660;23.316;2023-06-22T07:44:09;95022.59;;;39.51;35.88
6090;BME280;3073;42.660;23.316;2023-06-22T07:46:37;95014.53;;;39.31;36.32
6090;BME280;3073;42.660;23.316;2023-06-22T07:49:04;95009.91;;;39.55;36.04
6090;BME280;3073;42.660;23.316;2023-06-22T07:51:30;95019.94;;;40.10;35.45
6090;BME280;3073;42.660;23.316;2023-06-22T07:53:57;95017.25;;;38.51;36.55
6090;BME280;3073;42.660;23.316;2023-06-22T07:56:24;95013.53;;;38.45;37.64
6090;BME280;3073;42.660;23.316;2023-06-22T07:58:51;95012.31;;;38.76;36.85
6090;BME280;3073;42.660;23.316;2023-06-22T08:01:19;95020.75;;;38.14;36.94
6090;BME280;3073;42.660;23.316;2023-06-22T08:03:48;95008.34;;;38.31;37.34
6090;BME280;3073;42.660;23.316;2023-06-22T08:06:15;95003.88;;;38.24;36.84
6090;BME280;3073;42.660;23.316;2023-06-22T08:08:41;95002.56;;;37.72;37.98
6090;BME280;3073;42.660;23.316;2023-06-22T08:11:09;94999.66;;;35.73;41.54
6090;BME280;3073;42.660;23.316;2023-06-22T08:13:36;94996.06;;;38.06;39.22
6090;BME280;3073;42.660;23.316;2023-06-22T08:16:03;94994.19;;;38.64;37.66
6090;BME280;3073;42.660;23.316;2023-06-22T08:18:30;94991.19;;;37.27;38.66
6090;BME280;3073;42.660;23.316;2023-06-22T08:20:58;94990.22;;;38.49;37.78
6090;BME280;3073;42.660;23.316;2023-06-22T08:23:25;94982.53;;;38.81;37.00
6090;BME280;3073;42.660;23.316;2023-06-22T08:25:52;94988.50;;;39.12;37.75
6090;BME280;3073;42.660;23.316;2023-06-22T08:28:18;94979.94;;;38.74;36.99
6090;BME280;3073;42.660;23.316;2023-06-22T08:30:45;94987.75;;;38.88;36.14
6090;BME280;3073;42.660;23.316;2023-06-22T08:33:12;94983.22;;;38.85;36.67
6090;BME280;3073;42.660;23.316;2023-06-22T08:35:39;94986.38;;;38.77;36.23
6090;BME280;3073;42.660;23.316;2023-06-22T08:38:07;94985.09;;;38.88;36.51
6090;BME280;3073;42.660;23.316;2023-06-22T08:40:34;94988.00;;;38.71;37.65
6090;BME280;3073;42.660;23.316;2023-06-22T08:43:01;94979.81;;;37.63;37.77
6090;BME280;3073;42.660;23.316;2023-06-22T08:45:28;94991.69;;;37.93;39.34
6090;BME280;3073;42.660;23.316;2023-06-22T08:47:54;94992.84;;;37.88;38.98
6090;BME280;3073;42.660;23.316;2023-06-22T08:50:21;94986.47;;;39.43;37.82
6090;BME280;3073;42.660;23.316;2023-06-22T08:52:48;94987.34;;;40.19;36.27
6090;BME280;3073;42.660;23.316;2023-06-22T08:55:17;94984.09;;;40.07;36.43
6090;BME280;3073;42.660;23.316;2023-06-22T08:57:43;94980.84;;;39.37;35.64
6090;BME280;3073;42.660;23.316;2023-06-22T09:00:11;94978.81;;;39.45;34.87
6090;BME280;3073;42.660;23.316;2023-06-22T09:02:42;94974.09;;;40.47;33.91
6090;BME280;3073;42.660;23.316;2023-06-22T09:05:09;94969.41;;;41.48;32.66
6090;BME280;3073;42.660;23.316;2023-06-22T09:07:36;94966.28;;;41.05;33.76
6090;BME280;3073;42.660;23.316;2023-06-22T09:10:03;94963.28;;;40.51;33.22
6090;BME280;3073;42.660;23.316;2023-06-22T09:12:32;94962.72;;;38.79;34.83
6090;BME280;3073;42.660;23.316;2023-06-22T09:15:00;94966.63;;;40.03;33.29
6090;BME280;3073;42.660;23.316;2023-06-22T09:17:28;94959.84;;;41.31;32.59
6090;BME280;3073;42.660;23.316;2023-06-22T09:19:55;94966.69;;;41.20;31.29
6090;BME280;3073;42.660;23.316;2023-06-22T09:22:21;94973.06;;;39.66;32.57
6090;BME280;3073;42.660;23.316;2023-06-22T09:27:54;94964.34;;;39.62;32.20
6090;BME280;3073;42.660;23.316;2023-06-22T09:30:39;94978.78;;;41.69;30.88
6090;BME280;3073;42.660;23.316;2023-06-22T09:33:06;94978.06;;;41.40;31.94
6090;BME280;3073;42.660;23.316;2023-06-22T09:35:33;94977.75;;;42.84;30.54
6090;BME280;3073;42.660;23.316;2023-06-22T09:37:59;94983.91;;;40.18;32.10
6090;BME280;3073;42.660;23.316;2023-06-22T09:40:26;94970.81;;;42.61;30.16
6090;BME280;3073;42.660;23.316;2023-06-22T09:42:54;94980.88;;;41.33;30.16
6090;BME280;3073;42.660;23.316;2023-06-22T09:45:21;94975.50;;;42.57;29.29
6090;BME280;3073;42.660;23.316;2023-06-22T09:47:48;94972.94;;;39.93;31.80
6090;BME280;3073;42.660;23.316;2023-06-22T09:50:15;94972.63;;;39.28;32.37
6090;BME280;3073;42.660;23.316;2023-06-22T09:52:42;94964.84;;;40.16;32.36
6090;BME280;3073;42.660;23.316;2023-06-22T09:55:11;94966.59;;;40.75;31.73
6090;BME280;3073;42.660;23.316;2023-06-22T09:57:40;94960.75;;;41.98;29.77
6090;BME280;3073;42.660;23.316;2023-06-22T10:00:10;94949.97;;;42.40;30.07
6090;BME280;3073;42.660;23.316;2023-06-22T10:02:39;94955.84;;;40.42;31.49
6090;BME280;3073;42.660;23.316;2023-06-22T10:05:06;94954.25;;;39.73;33.37
6090;BME280;3073;42.660;23.316;2023-06-22T10:07:34;94956.34;;;39.62;31.69
6090;BME280;3073;42.660;23.316;2023-06-22T10:10:06;94952.91;;;39.61;31.84
6090;BME280;3073;42.660;23.316;2023-06-22T10:12:33;94950.81;;;41.41;31.15
6090;BME280;3073;42.660;23.316;2023-06-22T10:15:00;94949.50;;;42.54;29.81
6090;BME280;3073;42.660;23.316;2023-06-22T10:17:28;94952.13;;;42.20;29.37
6090;BME280;3073;42.660;23.316;2023-06-22T10:19:55;94945.94;;;43.85;28.03
6090;BME280;3073;42.660;23.316;2023-06-22T10:22:21;94944.41;;;44.06;28.40
6090;BME280;3073;42.660;23.316;2023-06-22T10:24:48;94952.75;;;43.99;27.73
6090;BME280;3073;42.660;23.316;2023-06-22T10:27:15;94953.91;;;44.20;26.93
6090;BME280;3073;42.660;23.316;2023-06-22T10:29:42;94949.03;;;43.40;26.51
6090;BME280;3073;42.660;23.316;2023-06-22T10:32:09;94948.25;;;42.71;27.40
6090;BME280;3073;42.660;23.316;2023-06-22T10:34:37;94943.13;;;43.11;28.09
6090;BME280;3073;42.660;23.316;2023-06-22T10:37:05;94939.84;;;43.72;27.02
6090;BME280;3073;42.660;23.316;2023-06-22T10:39:32;94934.03;;;44.66;27.12
6090;BME280;3073;42.660;23.316;2023-06-22T10:41:58;94933.97;;;45.06;26.44
6090;BME280;3073;42.660;23.316;2023-06-22T10:44:26;94933.34;;;44.44;26.21
6090;BME280;3073;42.660;23.316;2023-06-22T10:46:52;94940.84;;;43.87;28.02
6090;BME280;3073;42.660;23.316;2023-06-22T10:49:19;94931.56;;;42.89;28.13
6090;BME280;3073;42.660;23.316;2023-06-22T10:51:47;94931.38;;;44.04;27.96
6090;BME280;3073;42.660;23.316;2023-06-22T10:54:14;94927.06;;;44.07;27.05
6090;BME280;3073;42.660;23.316;2023-06-22T10:56:43;94926.56;;;42.53;28.28
6090;BME280;3073;42.660;23.316;2023-06-22T10:59:10;94917.50;;;40.65;31.10
6090;BME280;3073;42.660;23.316;2023-06-22T11:01:37;94919.97;;;42.54;29.54
6090;BME280;3073;42.660;23.316;2023-06-22T11:04:04;94920.00;;;44.80;28.17
6090;BME280;3073;42.660;23.316;2023-06-22T11:06:31;94924.94;;;44.33;27.04
6090;BME280;3073;42.660;23.316;2023-06-22T11:08:59;94924.63;;;44.31;25.75
6090;BME280;3073;42.660;23.316;2023-06-22T11:11:26;94929.84;;;43.94;26.46
6090;BME280;3073;42.660;23.316;2023-06-22T11:13:53;94920.59;;;44.84;26.93
6090;BME280;3073;42.660;23.316;2023-06-22T11:16:20;94917.09;;;44.17;26.01
6090;BME280;3073;42.660;23.316;2023-06-22T11:18:47;94908.13;;;43.02;27.24
6090;BME280;3073;42.660;23.316;2023-06-22T11:21:14;94906.59;;;44.09;26.74
6090;BME280;3073;42.660;23.316;2023-06-22T11:23:42;94899.03;;;44.66;26.55
6090;BME280;3073;42.660;23.316;2023-06-22T11:26:10;94899.31;;;44.77;27.32
6090;BME280;3073;42.660;23.316;2023-06-22T11:28:37;94907.75;;;45.52;25.59
6090;BME280;3073;42.660;23.316;2023-06-22T11:31:04;94904.63;;;46.14;25.39
6090;BME280;3073;42.660;23.316;2023-06-22T11:33:33;94900.59;;;45.03;25.80
6090;BME280;3073;42.660;23.316;2023-06-22T11:36:00;94894.59;;;45.36;25.49
6090;BME280;3073;42.660;23.316;2023-06-22T11:38:27;94899.09;;;45.02;25.37
6090;BME280;3073;42.660;23.316;2023-06-22T11:40:56;94899.94;;;44.81;26.12
6090;BME280;3073;42.660;23.316;2023-06-22T11:43:25;94898.50;;;43.35;27.10
6090;BME280;3073;42.660;23.316;2023-06-22T11:45:52;94898.41;;;42.45;27.40
6090;BME280;3073;42.660;23.316;2023-06-22T11:48:20;94892.94;;;42.10;28.53
6090;BME280;3073;42.660;23.316;2023-06-22T11:50:47;94882.22;;;42.36;27.84
6090;BME280;3073;42.660;23.316;2023-06-22T11:53:14;94878.00;;;41.84;29.58
6090;BME280;3073;42.660;23.316;2023-06-22T11:55:42;94874.81;;;40.42;30.68
6090;BME280;3073;42.660;23.316;2023-06-22T11:58:09;94879.28;;;39.96;29.95
6090;BME280;3073;42.660;23.316;2023-06-22T12:00:38;94872.66;;;40.69;30.58
6090;BME280;3073;42.660;23.316;2023-06-22T12:03:05;94872.16;;;39.90;31.80
6090;BME280;3073;42.660;23.316;2023-06-22T12:05:32;94887.59;;;39.23;32.01
6090;BME280;3073;42.660;23.316;2023-06-22T12:07:59;94878.72;;;39.30;32.35
6090;BME280;3073;42.660;23.316;2023-06-22T12:10:27;94881.84;;;38.82;33.96
6090;BME280;3073;42.660;23.316;2023-06-22T12:12:54;94886.31;;;38.88;34.08
6090;BME280;3073;42.660;23.316;2023-06-22T12:15:23;94901.97;;;39.09;34.82
6090;BME280;3073;42.660;23.316;2023-06-22T12:17:52;94904.00;;;38.02;35.70
6090;BME280;3073;42.660;23.316;2023-06-22T12:20:18;94896.78;;;36.94;37.57
6090;BME280;3073;42.660;23.316;2023-06-22T12:23:09;94894.69;;;36.20;38.72
6090;BME280;3073;42.660;23.316;2023-06-22T12:25:36;94889.66;;;35.56;39.67
6090;BME280;3073;42.660;23.316;2023-06-22T12:28:03;94890.53;;;34.93;41.74
6090;BME280;3073;42.660;23.316;2023-06-22T12:30:30;94888.94;;;33.96;44.44
6090;BME280;3073;42.660;23.316;2023-06-22T12:32:57;94901.94;;;34.86;43.86
6090;BME280;3073;42.660;23.316;2023-06-22T12:35:24;94926.97;;;34.78;44.30
6090;BME280;3073;42.660;23.316;2023-06-22T12:37:51;94929.84;;;34.09;45.08
6090;BME280;3073;42.660;23.316;2023-06-22T12:40:20;94926.63;;;33.58;47.49
6090;BME280;3073;42.660;23.316;2023-06-22T12:42:47;94932.78;;;33.73;48.55
6090;BME280;3073;42.660;23.316;2023-06-22T12:45:15;94926.00;;;33.10;50.40
6090;BME280;3073;42.660;23.316;2023-06-22T12:47:42;94933.16;;;32.22;54.29
6090;BME280;3073;42.660;23.316;2023-06-22T12:50:09;94937.03;;;31.64;59.15
6090;BME280;3073;42.660;23.316;2023-06-22T12:52:37;94934.75;;;32.70;60.41
6090;BME280;3073;42.660;23.316;2023-06-22T12:55:07;94950.44;;;33.00;56.21
6090;BME280;3073;42.660;23.316;2023-06-22T12:57:38;94960.81;;;33.16;54.25
6090;BME280;3073;42.660;23.316;2023-06-22T13:00:07;94947.78;;;33.51;55.16
6090;BME280;3073;42.660;23.316;2023-06-22T13:02:35;94950.00;;;33.42;53.55
6090;BME280;3073;42.660;23.316;2023-06-22T13:05:03;94949.53;;;32.38;51.79
6090;BME280;3073;42.660;23.316;2023-06-22T13:07:31;94952.50;;;33.17;56.25
6090;BME280;3073;42.660;23.316;2023-06-22T13:09:58;94942.38;;;33.33;58.90
6090;BME280;3073;42.660;23.316;2023-06-22T13:12:26;94942.91;;;32.98;60.88
6090;BME280;3073;42.660;23.316;2023-06-22T13:14:55;94943.72;;;31.02;63.02
6090;BME280;3073;42.660;23.316;2023-06-22T13:17:22;94958.53;;;29.66;69.89